Airfield :
LOGIN :

Register | Disclaimer

   EN    FR    IT 

 










Legend :    VFR   Marginal VFR   IFR   Intensive IFR   Very Intensive IFR
Visi :
Ceiling :
>= 8 km
>= 3000ft
5 to 8 km
1000 to 3000 ft
1500m to 5 km
500 to 1000 ft
800 to 1500m
200 to 500 ft
< 800m
< 200 ft
Symbols :   Thunderstorms  Fog  Heavy snow  Heavy precipitations  Wind > 20 kt
SIGMETs :     Misc.  Thunderstorms  Icing  Turbulence  Mountain Waves  Volcanic Ashes






- Airport Elevation : 39 ft
- IATA code : ANR


EBAW - Anvers / Antwerpen Deurne

CURRENT METAR :
  • 071620Z AUTO 22008KT 9999 R11///// // VV/// 16/07 Q1019

EXPIRED METARs :
  • 071550Z AUTO 22009KT 9999 R11///// // VV/// 17/07 Q1019
  • 071520Z AUTO 21008KT 180V240 9999 R11///// // VV/// 17/08 Q1019
  • 071450Z AUTO 21009KT 170V250 9999 R11///// // VV/// 17/08 Q1019
  • 071420Z AUTO 21009KT 170V250 9999 R11///// // VV/// 17/08 Q1020
  • 071350Z AUTO 20008KT 170V230 9999 R11///// // VV/// 18/08 Q1020

TAF TAF EBAW
Valid from the 07 at 15:00 until the 08 at 00:00 UTC


071401Z 0715/0724 22007KT CAVOK



MET'MAP, your aeronautical weather chart ! - Copyright ORBIFLY December 2007 - Disclaimer

ORBIFLY MET'MAP TEAM :

Programming & Development : Alexandra Zaïnal
Original concept : Baudouin d'Aumeries
Technical & hardware support : Manuel Goepfert
Assistance : Marc-Olivier Méhu




SOURCES & CREDITS :

   NOAA